createdAt,value
2023-04-29T00:01:10.069Z,100324.94
2023-04-29T00:03:37.202Z,100328.21
2023-04-29T00:06:05.005Z,100327.02
2023-04-29T00:08:32.544Z,100326.70
2023-04-29T00:10:59.489Z,100324.66
2023-04-29T00:13:26.641Z,100323.30
2023-04-29T00:15:53.894Z,100326.23
2023-04-29T00:18:20.945Z,100320.25
2023-04-29T00:20:47.982Z,100324.75
2023-04-29T00:23:14.926Z,100324.77
2023-04-29T00:25:41.882Z,100320.69
2023-04-29T00:28:08.871Z,100318.84
2023-04-29T00:30:36.165Z,100317.48
2023-04-29T00:33:04.078Z,100320.44
2023-04-29T00:35:31.423Z,100315.65
2023-04-29T00:37:58.468Z,100314.66
2023-04-29T00:40:25.478Z,100314.17
2023-04-29T00:42:52.530Z,100315.75
2023-04-29T00:45:19.903Z,100317.98
2023-04-29T00:47:47.406Z,100319.05
2023-04-29T00:50:14.487Z,100312.70
2023-04-29T00:52:41.672Z,100315.31
2023-04-29T00:55:09.228Z,100313.96
2023-04-29T00:57:36.263Z,100308.65
2023-04-29T01:00:04.414Z,100309.88
2023-04-29T01:02:31.802Z,100311.45
2023-04-29T01:04:58.917Z,100312.14
2023-04-29T01:07:37.948Z,100312.67
2023-04-29T01:10:23.331Z,100315.95
2023-04-29T01:13:10.192Z,100316.66
2023-04-29T01:16:04.309Z,100326.62
2023-04-29T01:18:41.460Z,100331.10
2023-04-29T01:21:09.261Z,100333.48
2023-04-29T01:23:36.414Z,100339.52
2023-04-29T01:26:03.771Z,100339.87
2023-04-29T01:28:49.558Z,100332.16
2023-04-29T01:31:28.720Z,100332.33
2023-04-29T01:34:08.738Z,100334.05
2023-04-29T01:36:45.209Z,100339.54
2023-04-29T01:39:12.762Z,100337.99
2023-04-29T01:41:55.420Z,100345.04
2023-04-29T01:44:29.271Z,100349.69
2023-04-29T01:46:56.696Z,100345.74
2023-04-29T01:49:30.442Z,100339.41
2023-04-29T01:51:57.907Z,100343.89
2023-04-29T01:54:25.909Z,100339.77
2023-04-29T01:56:53.136Z,100339.77
2023-04-29T01:59:30.223Z,100341.15
2023-04-29T02:02:37.026Z,100344.59
2023-04-29T02:05:11.825Z,100351.29
2023-04-29T02:07:42.512Z,100349.06
2023-04-29T02:10:10.086Z,100347.36
2023-04-29T02:12:37.494Z,100343.77
2023-04-29T02:15:05.047Z,100349.61
2023-04-29T02:21:02.114Z,100319.75
2023-04-29T02:23:29.747Z,100331.98
2023-04-29T02:25:56.694Z,100330.42
2023-04-29T02:28:24.763Z,100328.89
2023-04-29T02:30:52.022Z,100326.68
2023-04-29T02:33:19.267Z,100322.59
2023-04-29T02:35:46.520Z,100317.27
2023-04-29T02:38:13.669Z,100317.83
2023-04-29T02:40:44.394Z,100317.65
2023-04-29T02:43:12.077Z,100319.04
2023-04-29T02:45:39.372Z,100321.96
2023-04-29T02:48:07.365Z,100328.66
2023-04-29T02:50:34.741Z,100325.40
2023-04-29T02:53:02.192Z,100331.58
2023-04-29T02:55:29.345Z,100329.88
2023-04-29T02:57:59.363Z,100329.02
2023-04-29T03:00:26.312Z,100334.69
2023-04-29T03:02:53.721Z,100339.15
2023-04-29T03:05:20.915Z,100337.78
2023-04-29T03:07:47.965Z,100341.73
2023-04-29T03:10:15.113Z,100337.59
2023-04-29T03:12:42.358Z,100332.44
2023-04-29T03:15:10.847Z,100333.46
2023-04-29T03:17:38.012Z,100332.25
2023-04-29T03:20:06.403Z,100334.32
2023-04-29T03:22:33.720Z,100334.48
2023-04-29T03:25:00.887Z,100337.39
2023-04-29T03:27:28.222Z,100341.33
2023-04-29T03:29:55.404Z,100346.48
2023-04-29T03:32:22.617Z,100342.01
2023-04-29T03:34:50.793Z,100342.51
2023-04-29T03:37:27.365Z,100351.06
2023-04-29T03:40:00.454Z,100349.36
2023-04-29T03:42:27.504Z,100353.64
2023-04-29T03:44:54.550Z,100360.83
2023-04-29T03:47:21.486Z,100358.60
2023-04-29T03:49:49.510Z,100359.27
2023-04-29T03:52:16.921Z,100356.85
2023-04-29T03:54:44.540Z,100362.33
2023-04-29T03:57:11.929Z,100361.48
2023-04-29T03:59:39.076Z,100357.52
2023-04-29T04:02:06.910Z,100358.89
2023-04-29T04:04:34.700Z,100360.61
2023-04-29T04:07:01.866Z,100363.67
2023-04-29T04:09:31.458Z,100364.87
2023-04-29T04:11:59.020Z,100364.86
2023-04-29T04:14:26.172Z,100373.61
2023-04-29T04:16:53.115Z,100380.48
2023-04-29T04:19:20.877Z,100386.48
2023-04-29T04:21:47.923Z,100389.04
2023-04-29T04:24:14.973Z,100392.48
2023-04-29T04:26:42.732Z,100395.55
2023-04-29T04:29:22.278Z,100396.08
2023-04-29T04:32:02.927Z,100398.64
2023-04-29T04:34:30.301Z,100400.35
2023-04-29T04:36:58.060Z,100402.55
2023-04-29T04:39:25.737Z,100412.84
2023-04-29T04:41:53.497Z,100413.34
2023-04-29T04:44:21.151Z,100417.64
2023-04-29T04:47:20.763Z,100415.40
2023-04-29T04:50:04.906Z,100421.89
2023-04-29T04:52:32.057Z,100427.37
2023-04-29T04:55:15.103Z,100430.44
2023-04-29T04:57:44.481Z,100436.77
2023-04-29T05:00:13.397Z,100438.45
2023-04-29T05:02:40.595Z,100435.70
2023-04-29T05:05:08.294Z,100443.88
2023-04-29T05:07:36.559Z,100441.61
2023-04-29T05:10:06.887Z,100449.99
2023-04-29T05:12:35.499Z,100449.98
2023-04-29T05:15:04.517Z,100453.58
2023-04-29T05:17:31.974Z,100452.69
2023-04-29T05:19:59.485Z,100459.99
2023-04-29T05:22:27.030Z,100463.20
2023-04-29T05:24:55.416Z,100466.56
2023-04-29T05:27:22.969Z,100475.09
2023-04-29T05:29:50.483Z,100475.02
2023-04-29T05:32:18.291Z,100480.91
2023-04-29T05:34:45.566Z,100489.60
2023-04-29T05:37:12.589Z,100497.27
2023-04-29T05:39:54.363Z,100507.73
2023-04-29T05:42:21.526Z,100506.29
2023-04-29T05:44:51.449Z,100510.30
2023-04-29T05:47:18.389Z,100518.86
2023-04-29T05:49:45.747Z,100520.29
2023-04-29T05:52:13.102Z,100519.27
2023-04-29T05:54:44.455Z,100527.70
2023-04-29T05:57:12.309Z,100528.38
2023-04-29T05:59:40.277Z,100540.81
2023-04-29T06:02:07.224Z,100546.55
2023-04-29T06:04:36.696Z,100557.05
2023-04-29T06:07:20.178Z,100560.42
2023-04-29T06:10:11.180Z,100571.70
2023-04-29T06:12:40.777Z,100589.64
2023-04-29T06:15:08.540Z,100592.89
2023-04-29T06:17:35.636Z,100591.38
2023-04-29T06:20:02.635Z,100598.12
2023-04-29T06:22:29.892Z,100587.16
2023-04-29T06:24:57.039Z,100589.17
2023-04-29T06:27:37.189Z,100577.96
2023-04-29T06:30:05.837Z,100586.96
2023-04-29T06:32:32.960Z,100587.54
2023-04-29T06:34:59.970Z,100588.94
2023-04-29T06:37:35.881Z,100587.42
2023-04-29T06:40:14.232Z,100584.80
2023-04-29T06:43:19.901Z,100597.93
2023-04-29T06:45:47.138Z,100599.95
2023-04-29T06:48:22.889Z,100602.22
2023-04-29T06:50:54.491Z,100630.38
2023-04-29T06:53:21.593Z,100646.59
2023-04-29T06:55:48.635Z,100657.78
2023-04-29T06:58:16.619Z,100656.07
2023-04-29T07:00:47.740Z,100665.23
2023-04-29T07:03:15.372Z,100658.89
2023-04-29T07:05:45.557Z,100665.25
2023-04-29T07:08:13.557Z,100668.97
2023-04-29T07:10:41.891Z,100682.19
2023-04-29T07:13:08.929Z,100672.98
2023-04-29T07:15:36.581Z,100672.44
2023-04-29T07:18:05.567Z,100665.75
2023-04-29T07:20:32.727Z,100648.50
2023-04-29T07:22:59.773Z,100637.23
2023-04-29T07:25:27.998Z,100629.67
2023-04-29T07:27:56.735Z,100609.55
2023-04-29T07:30:25.411Z,100615.81
2023-04-29T07:32:52.698Z,100615.73
2023-04-29T07:35:19.922Z,100641.23
2023-04-29T07:37:46.977Z,100634.84
2023-04-29T07:40:14.223Z,100620.70
2023-04-29T07:42:41.278Z,100607.52
2023-04-29T07:45:08.840Z,100607.66
2023-04-29T07:47:36.198Z,100609.59
2023-04-29T07:50:03.537Z,100608.06
2023-04-29T07:52:31.194Z,100605.75
2023-04-29T07:54:58.139Z,100589.98
2023-04-29T07:57:25.495Z,100604.14
2023-04-29T07:59:55.719Z,100548.33
2023-04-29T08:02:23.503Z,100551.13
2023-04-29T08:04:51.820Z,100599.77
2023-04-29T08:07:19.307Z,100561.34
2023-04-29T08:09:46.582Z,100544.52
2023-04-29T08:12:13.718Z,100558.42
2023-04-29T08:14:40.960Z,100511.38
2023-04-29T08:17:08.959Z,100531.66
2023-04-29T08:19:36.720Z,100554.31
2023-04-29T08:22:04.490Z,100591.78
2023-04-29T08:24:33.657Z,100636.00
2023-04-29T08:27:01.621Z,100641.89
2023-04-29T08:29:28.795Z,100646.42
2023-04-29T08:31:56.055Z,100624.58
2023-04-29T08:34:24.201Z,100645.03
2023-04-29T08:36:51.246Z,100645.41
2023-04-29T08:40:21.038Z,100642.56
2023-04-29T08:42:49.055Z,100677.82
2023-04-29T08:45:17.511Z,100662.17
2023-04-29T08:47:44.446Z,100623.70
2023-04-29T08:50:11.546Z,100639.23
2023-04-29T08:52:38.551Z,100652.83
2023-04-29T08:55:06.111Z,100649.91
2023-04-29T08:57:39.906Z,100657.20
2023-04-29T09:00:08.973Z,100653.66
2023-04-29T09:02:39.509Z,100641.89
2023-04-29T09:05:09.764Z,100643.45
2023-04-29T09:07:38.184Z,100667.00
2023-04-29T09:10:05.721Z,100660.50
2023-04-29T09:12:32.741Z,100665.90
2023-04-29T09:15:00.023Z,100682.27
2023-04-29T09:17:47.168Z,100698.25
2023-04-29T09:20:21.515Z,100695.96
2023-04-29T09:22:54.170Z,100680.58
2023-04-29T09:25:22.201Z,100669.63
2023-04-29T09:27:49.403Z,100671.48
2023-04-29T09:30:17.094Z,100674.52
2023-04-29T09:32:45.917Z,100664.08
2023-04-29T09:35:26.560Z,100681.27
2023-04-29T09:37:54.413Z,100670.08
2023-04-29T09:40:31.788Z,100667.33
2023-04-29T09:42:59.675Z,100655.98
2023-04-29T09:45:37.059Z,100638.98
2023-04-29T09:48:07.545Z,100640.76
2023-04-29T09:50:44.366Z,100624.93
2023-04-29T09:53:11.832Z,100605.85
2023-04-29T09:55:59.240Z,100616.34
2023-04-29T09:58:40.448Z,100606.59
2023-04-29T10:01:08.472Z,100565.73
2023-04-29T10:03:37.103Z,100583.44
2023-04-29T10:06:05.850Z,100596.02
2023-04-29T10:08:33.524Z,100580.27
2023-04-29T10:11:02.408Z,100564.40
2023-04-29T10:13:29.667Z,100570.18
2023-04-29T10:15:59.740Z,100566.71
2023-04-29T10:18:31.384Z,100589.91
2023-04-29T10:20:58.684Z,100617.10
2023-04-29T10:23:25.590Z,100621.45
2023-04-29T10:25:53.191Z,100614.39
2023-04-29T10:28:20.543Z,100622.90
2023-04-29T10:30:51.587Z,100626.91
2023-04-29T10:33:18.720Z,100615.09
2023-04-29T10:35:45.766Z,100608.65
2023-04-29T10:38:24.720Z,100619.48
2023-04-29T10:40:51.958Z,100612.46
2023-04-29T10:43:24.206Z,100619.24
2023-04-29T10:45:51.270Z,100620.36
2023-04-29T10:48:21.494Z,100618.66
2023-04-29T10:50:48.444Z,100610.05
2023-04-29T10:53:15.920Z,100612.08
2023-04-29T10:55:43.161Z,100606.52
2023-04-29T10:58:38.456Z,100592.05
2023-04-29T11:01:05.834Z,100585.38
2023-04-29T11:03:58.752Z,100584.80
2023-04-29T11:06:47.531Z,100576.54
2023-04-29T11:09:24.600Z,100582.77
2023-04-29T11:12:08.559Z,100574.73
2023-04-29T11:14:43.482Z,100569.70
2023-04-29T11:17:15.546Z,100553.98
2023-04-29T11:19:46.823Z,100554.45
2023-04-29T11:22:21.643Z,100565.97
2023-04-29T11:24:54.159Z,100572.45
2023-04-29T11:27:25.508Z,100535.23
2023-04-29T11:29:58.692Z,100530.77
2023-04-29T11:32:33.228Z,100511.41
2023-04-29T11:35:14.078Z,100518.69
2023-04-29T11:37:41.912Z,100530.30
2023-04-29T11:40:09.988Z,100517.84
2023-04-29T11:42:47.049Z,100520.31
2023-04-29T11:45:15.546Z,100541.48
2023-04-29T11:47:44.001Z,100536.34
2023-04-29T11:50:11.856Z,100557.46
2023-04-29T11:52:40.305Z,100598.85
2023-04-29T11:55:10.774Z,100602.89
2023-04-29T11:57:38.232Z,100610.25
2023-04-29T12:00:07.990Z,100623.44
2023-04-29T12:02:37.871Z,100607.15
2023-04-29T12:05:13.540Z,100594.02
2023-04-29T12:07:40.962Z,100617.75
2023-04-29T12:10:10.753Z,100628.77
2023-04-29T12:12:41.115Z,100622.81
2023-04-29T12:15:10.513Z,100624.63
2023-04-29T12:17:37.991Z,100629.63
2023-04-29T12:20:07.497Z,100631.71
2023-04-29T12:22:34.614Z,100617.50
2023-04-29T12:25:05.515Z,100622.80
2023-04-29T12:27:33.957Z,100618.83
2023-04-29T12:30:01.074Z,100622.19
2023-04-29T12:32:28.041Z,100626.68
2023-04-29T12:34:56.148Z,100629.60
2023-04-29T12:37:23.959Z,100633.07
2023-04-29T12:39:51.259Z,100623.97
2023-04-29T12:42:18.786Z,100639.33
2023-04-29T12:44:49.261Z,100620.36
2023-04-29T12:47:16.998Z,100600.60
2023-04-29T12:49:48.456Z,100595.40
2023-04-29T12:52:15.562Z,100597.81
2023-04-29T12:54:44.142Z,100601.70
2023-04-29T12:57:12.153Z,100607.67
2023-04-29T12:59:42.942Z,100612.83
2023-04-29T13:02:10.572Z,100614.31
2023-04-29T13:04:38.580Z,100613.44
2023-04-29T13:07:07.452Z,100609.86
2023-04-29T13:09:35.937Z,100601.66
2023-04-29T13:12:03.085Z,100602.38
2023-04-29T13:14:30.645Z,100612.55
2023-04-29T13:16:57.728Z,100612.91
2023-04-29T13:19:41.151Z,100615.70
2023-04-29T13:22:11.439Z,100607.17
2023-04-29T13:24:39.010Z,100599.09
2023-04-29T13:27:06.155Z,100603.46
2023-04-29T13:29:33.559Z,100595.32
2023-04-29T13:32:01.381Z,100605.14
2023-04-29T13:34:28.622Z,100605.79
2023-04-29T13:36:55.674Z,100601.25
2023-04-29T13:39:23.538Z,100601.38
2023-04-29T13:41:51.199Z,100606.31
2023-04-29T13:44:29.543Z,100599.45
2023-04-29T13:47:05.656Z,100593.41
2023-04-29T13:52:54.251Z,100605.58
2023-04-29T13:55:25.764Z,100600.56
2023-04-29T14:00:25.079Z,100600.84
2023-04-29T14:05:27.166Z,100602.02
2023-04-29T14:07:54.351Z,100610.23
2023-04-29T14:10:21.692Z,100601.90
2023-04-29T14:12:49.050Z,100609.52
2023-04-29T14:15:16.933Z,100612.52
2023-04-29T14:17:43.997Z,100607.27
2023-04-29T14:20:11.725Z,100616.52
2023-04-29T14:22:38.776Z,100612.38
2023-04-29T14:25:06.643Z,100603.44
2023-04-29T14:27:34.915Z,100607.30
2023-04-29T14:30:02.017Z,100607.88
2023-04-29T14:32:29.197Z,100596.84
2023-04-29T14:34:56.486Z,100591.33
2023-04-29T14:37:23.733Z,100585.33
2023-04-29T14:39:50.974Z,100589.52
2023-04-29T14:42:18.934Z,100595.24
2023-04-29T14:44:45.888Z,100591.82
2023-04-29T14:47:13.441Z,100594.99
2023-04-29T14:49:42.839Z,100585.73
2023-04-29T14:52:10.091Z,100586.05
2023-04-29T14:54:38.109Z,100578.70
2023-04-29T14:57:05.107Z,100572.48
2023-04-29T14:59:33.685Z,100571.64
2023-04-29T15:02:00.769Z,100564.91
2023-04-29T15:04:28.644Z,100560.95
2023-04-29T15:06:55.656Z,100567.88
2023-04-29T15:09:23.718Z,100569.94
2023-04-29T15:11:51.172Z,100575.15
2023-04-29T15:14:18.441Z,100574.66
2023-04-29T15:16:46.333Z,100576.30
2023-04-29T15:19:13.549Z,100575.16
2023-04-29T15:21:40.592Z,100569.52
2023-04-29T15:24:08.778Z,100560.59
2023-04-29T15:26:35.722Z,100559.79
2023-04-29T15:29:04.296Z,100552.58
2023-04-29T15:31:31.346Z,100553.30
2023-04-29T15:33:58.385Z,100553.55
2023-04-29T15:36:30.248Z,100557.23
2023-04-29T15:38:57.425Z,100556.42
2023-04-29T15:41:27.813Z,100556.30
2023-04-29T15:43:55.382Z,100552.01
2023-04-29T15:46:22.457Z,100547.73
2023-04-29T15:48:49.582Z,100540.67
2023-04-29T15:51:16.744Z,100536.20
2023-04-29T15:53:44.834Z,100529.98
2023-04-29T15:56:12.260Z,100519.84
2023-04-29T15:58:39.298Z,100511.60
2023-04-29T16:01:06.584Z,100505.79
2023-04-29T16:03:33.632Z,100501.20
2023-04-29T16:06:00.800Z,100496.11
2023-04-29T16:08:28.009Z,100503.45
2023-04-29T16:10:54.943Z,100502.63
2023-04-29T16:13:21.883Z,100505.48
2023-04-29T16:15:48.944Z,100502.14
2023-04-29T16:18:17.595Z,100499.27
2023-04-29T16:20:45.180Z,100496.02
2023-04-29T16:23:12.343Z,100491.92
2023-04-29T16:25:41.016Z,100494.61
2023-04-29T16:28:07.974Z,100496.05
2023-04-29T16:30:35.968Z,100492.12
2023-04-29T16:33:03.099Z,100484.94
2023-04-29T16:35:31.163Z,100483.96
2023-04-29T16:37:58.407Z,100483.18
2023-04-29T16:40:25.663Z,100480.84
2023-04-29T16:42:53.651Z,100477.30
2023-04-29T16:45:23.160Z,100473.56
2023-04-29T16:47:51.267Z,100468.11
2023-04-29T16:50:18.776Z,100465.73
2023-04-29T16:52:45.814Z,100460.46
2023-04-29T16:55:12.959Z,100454.09
2023-04-29T16:57:40.005Z,100455.39
2023-04-29T17:00:11.347Z,100455.77
2023-04-29T17:02:40.485Z,100453.40
2023-04-29T17:05:09.205Z,100448.45
2023-04-29T17:07:36.284Z,100448.64
2023-04-29T17:10:04.242Z,100445.55
2023-04-29T17:12:31.187Z,100448.16
2023-04-29T17:14:58.245Z,100451.12
2023-04-29T17:17:25.335Z,100451.67
2023-04-29T17:19:52.705Z,100451.36
2023-04-29T17:22:20.102Z,100451.39
2023-04-29T17:24:47.648Z,100454.20
2023-04-29T17:27:14.898Z,100452.16
2023-04-29T17:29:43.275Z,100448.05
2023-04-29T17:32:11.516Z,100448.77
2023-04-29T17:34:39.321Z,100448.77
2023-04-29T17:37:06.473Z,100446.17
2023-04-29T17:39:34.317Z,100450.86
2023-04-29T17:42:01.584Z,100452.79
2023-04-29T17:44:28.834Z,100449.55
2023-04-29T17:46:56.504Z,100451.83
2023-04-29T17:49:23.545Z,100448.25
2023-04-29T17:51:50.593Z,100447.43
2023-04-29T17:54:17.632Z,100447.96
2023-04-29T17:56:44.684Z,100444.52
2023-04-29T17:59:12.056Z,100443.89
2023-04-29T18:01:39.321Z,100440.96
2023-04-29T18:04:06.798Z,100433.91
2023-04-29T18:06:33.949Z,100435.83
2023-04-29T18:09:03.000Z,100437.60
2023-04-29T18:11:30.037Z,100440.39
2023-04-29T18:13:57.203Z,100438.20
2023-04-29T18:16:24.460Z,100439.81
2023-04-29T18:18:56.806Z,100444.73
2023-04-29T18:21:25.294Z,100446.02
2023-04-29T18:23:52.304Z,100448.16
2023-04-29T18:26:19.262Z,100445.95
2023-04-29T18:28:46.652Z,100440.64
2023-04-29T18:31:15.170Z,100444.46
2023-04-29T18:33:42.320Z,100445.35
2023-04-29T18:36:09.405Z,100440.58
2023-04-29T18:38:36.865Z,100439.10
2023-04-29T18:41:05.041Z,100438.98
2023-04-29T18:43:32.170Z,100438.88
2023-04-29T18:45:59.177Z,100433.77
2023-04-29T18:48:27.800Z,100424.36
2023-04-29T18:50:55.976Z,100409.94
2023-04-29T18:53:22.891Z,100403.81
2023-04-29T18:55:49.889Z,100403.20
2023-04-29T18:58:16.760Z,100401.56
2023-04-29T19:00:43.736Z,100397.54
2023-04-29T19:03:11.613Z,100391.24
2023-04-29T19:05:38.879Z,100388.41
2023-04-29T19:08:06.579Z,100382.80
2023-04-29T19:10:33.487Z,100377.91
2023-04-29T19:13:00.510Z,100378.00
2023-04-29T19:15:28.415Z,100370.15
2023-04-29T19:21:17.696Z,100354.29
2023-04-29T19:23:44.742Z,100349.91
2023-04-29T19:26:11.951Z,100348.77
2023-04-29T19:28:38.908Z,100348.15
2023-04-29T19:31:05.920Z,100347.16
2023-04-29T19:33:33.030Z,100347.73
2023-04-29T19:36:00.100Z,100340.40
2023-04-29T19:38:27.151Z,100334.95
2023-04-29T19:40:56.011Z,100333.45
2023-04-29T19:43:23.468Z,100328.19
2023-04-29T19:45:50.821Z,100332.90
2023-04-29T19:48:17.872Z,100336.05
2023-04-29T19:50:44.916Z,100329.55
2023-04-29T19:53:11.970Z,100324.06
2023-04-29T19:55:40.114Z,100313.92
2023-04-29T19:58:08.344Z,100320.36
2023-04-29T20:00:35.403Z,100316.11
2023-04-29T20:03:03.356Z,100317.52
2023-04-29T20:05:30.475Z,100314.31
2023-04-29T20:07:57.530Z,100314.17
2023-04-29T20:10:25.358Z,100310.95
2023-04-29T20:12:53.895Z,100314.94
2023-04-29T20:15:20.924Z,100316.15
2023-04-29T20:17:47.896Z,100320.34
2023-04-29T20:20:15.539Z,100319.50
2023-04-29T20:22:42.572Z,100318.68
2023-04-29T20:25:10.742Z,100318.03
2023-04-29T20:27:38.088Z,100311.88
2023-04-29T20:30:05.960Z,100299.72
2023-04-29T20:32:33.046Z,100299.09
2023-04-29T20:35:00.272Z,100297.76
2023-04-29T20:37:27.518Z,100294.36
2023-04-29T20:39:55.094Z,100292.00
2023-04-29T20:42:22.424Z,100290.32
2023-04-29T20:44:49.370Z,100292.06
2023-04-29T20:47:16.417Z,100295.69
2023-04-29T20:49:43.576Z,100296.77
2023-04-29T20:52:10.821Z,100296.10
2023-04-29T20:54:38.077Z,100295.29
2023-04-29T20:58:29.199Z,100284.64
2023-04-29T21:00:56.673Z,100293.98
2023-04-29T21:03:24.715Z,100294.20
2023-04-29T21:05:55.589Z,100297.48
2023-04-29T21:08:22.698Z,100303.86
2023-04-29T21:10:49.644Z,100312.14
2023-04-29T21:13:18.024Z,100319.73
2023-04-29T21:15:46.588Z,100313.73
2023-04-29T21:18:14.032Z,100308.76
2023-04-29T21:20:41.209Z,100307.92
2023-04-29T21:23:08.152Z,100305.73
2023-04-29T21:25:35.231Z,100299.54
2023-04-29T21:28:02.420Z,100295.25
2023-04-29T21:30:29.501Z,100295.27
2023-04-29T21:32:56.501Z,100295.98
2023-04-29T21:35:23.723Z,100297.55
2023-04-29T21:37:50.612Z,100300.48
2023-04-29T21:40:18.813Z,100297.39
2023-04-29T21:42:45.732Z,100299.10
2023-04-29T21:45:14.879Z,100298.93
2023-04-29T21:47:41.895Z,100297.73
2023-04-29T21:50:09.581Z,100290.70
2023-04-29T21:52:36.580Z,100286.41
2023-04-29T21:55:03.971Z,100283.48
2023-04-29T21:57:42.778Z,100283.48
2023-04-29T22:00:28.325Z,100281.29
2023-04-29T22:02:55.299Z,100272.88
2023-04-29T22:05:22.364Z,100272.89
2023-04-29T22:07:49.250Z,100270.86
2023-04-29T22:10:16.354Z,100266.23
2023-04-29T22:12:43.320Z,100268.64
2023-04-29T22:15:26.916Z,100266.60
2023-04-29T22:21:22.152Z,100253.54
2023-04-29T22:23:49.253Z,100259.60
2023-04-29T22:26:16.348Z,100256.02
2023-04-29T22:28:43.290Z,100258.42
2023-04-29T22:31:10.251Z,100252.95
2023-04-29T22:33:37.285Z,100249.02
2023-04-29T22:36:05.473Z,100245.11
2023-04-29T22:38:32.444Z,100243.59
2023-04-29T22:40:59.757Z,100239.48
2023-04-29T22:43:27.006Z,100237.96
2023-04-29T22:45:54.839Z,100243.13
2023-04-29T22:48:23.595Z,100246.23
2023-04-29T22:50:56.237Z,100242.81
2023-04-29T22:53:23.297Z,100242.65
2023-04-29T22:55:50.941Z,100239.07
2023-04-29T22:58:18.398Z,100231.85
2023-04-29T23:00:46.379Z,100223.10
2023-04-29T23:03:13.421Z,100216.61
2023-04-29T23:05:41.286Z,100212.52
2023-04-29T23:08:08.656Z,100211.86
2023-04-29T23:10:35.697Z,100211.38
2023-04-29T23:13:02.729Z,100206.92
2023-04-29T23:15:29.820Z,100191.83
2023-04-29T23:18:00.052Z,100187.55
2023-04-29T23:20:27.156Z,100182.77
2023-04-29T23:22:54.190Z,100182.09
2023-04-29T23:25:21.346Z,100173.54
2023-04-29T23:27:48.311Z,100168.23
2023-04-29T23:30:15.337Z,100166.19
2023-04-29T23:32:42.356Z,100160.70
2023-04-29T23:35:11.683Z,100154.88
2023-04-29T23:37:39.140Z,100152.34
2023-04-29T23:40:07.483Z,100149.81
2023-04-29T23:42:34.477Z,100147.77
2023-04-29T23:45:01.514Z,100143.89
2023-04-29T23:47:28.571Z,100150.81
2023-04-29T23:49:55.838Z,100157.05
2023-04-29T23:52:23.466Z,100153.48
2023-04-29T23:54:51.025Z,100162.81
2023-04-29T23:57:18.182Z,100167.84
2023-04-29T23:59:45.844Z,100175.59
